Time;durP1;ratioP1;P1;durP2;ratioP2;P2;SDS_P1;SDS_P2;PMS_P1;PMS_P2;Temp;Humidity;BMP_temperature;BMP_pressure;BME280_temperature;BME280_humidity;BME280_pressure;Samples;Min_cycle;Max_cycle;Signal;HPM_P1;HPM_P2
2024/03/30 00:01:40;;;;;;;2.65;2.42;;;16.50;75.20;;;;;;4201973;28;20575;-47
2024/03/30 00:04:19;;;;;;;2.03;1.85;;;16.50;75.30;;;;;;4202164;28;20077;-48
2024/03/30 00:06:59;;;;;;;3.00;2.35;;;16.40;75.40;;;;;;4200640;28;20152;-48
2024/03/30 00:09:39;;;;;;;3.38;2.45;;;16.40;75.30;;;;;;4190682;28;20105;-49
2024/03/30 00:12:19;;;;;;;2.30;2.20;;;16.40;75.40;;;;;;4199616;28;20055;-47
2024/03/30 00:14:58;;;;;;;3.00;2.10;;;16.50;75.60;;;;;;4191374;28;20185;-47
2024/03/30 00:17:39;;;;;;;2.05;1.90;;;16.40;75.60;;;;;;4200331;28;20066;-45
2024/03/30 00:20:19;;;;;;;6.88;2.33;;;16.40;75.60;;;;;;4200935;28;20055;-47
2024/03/30 00:23:00;;;;;;;3.50;2.60;;;16.40;75.60;;;;;;4201983;28;20078;-47
2024/03/30 00:25:40;;;;;;;6.72;2.75;;;16.40;75.60;;;;;;4169911;28;20052;-49
2024/03/30 00:28:21;;;;;;;2.55;2.42;;;16.40;75.70;;;;;;4158260;28;20102;-47
2024/03/30 00:31:00;;;;;;;2.53;2.38;;;16.40;75.80;;;;;;4183700;28;20083;-47
2024/03/30 00:33:40;;;;;;;3.53;2.47;;;16.40;75.80;;;;;;4185733;28;20063;-48
2024/03/30 00:36:19;;;;;;;2.80;2.60;;;16.40;75.90;;;;;;4197918;28;20097;-47
2024/03/30 00:39:00;;;;;;;3.53;2.63;;;16.40;75.90;;;;;;4186479;28;20051;-48
2024/03/30 00:41:41;;;;;;;4.30;2.90;;;16.40;75.90;;;;;;4188691;27;20501;-47
2024/03/30 00:44:21;;;;;;;2.50;2.30;;;16.40;76.00;;;;;;4201647;28;20132;-48
2024/03/30 00:47:00;;;;;;;2.35;2.15;;;16.30;76.00;;;;;;4201914;28;20188;-48
2024/03/30 00:49:40;;;;;;;2.88;2.47;;;16.30;76.00;;;;;;4190383;28;20517;-50
2024/03/30 00:52:19;;;;;;;3.47;3.00;;;16.30;76.10;;;;;;4201660;28;20106;-50
2024/03/30 00:54:59;;;;;;;4.07;2.63;;;16.30;76.00;;;;;;4200693;28;20551;-48
2024/03/30 00:57:42;;;;;;;2.22;2.03;;;16.30;76.00;;;;;;4201300;27;20135;-48
2024/03/30 01:00:23;;;;;;;3.42;2.47;;;16.30;76.00;;;;;;4200836;28;20101;-48
2024/03/30 01:03:03;;;;;;;2.33;2.22;;;16.30;76.50;;;;;;4200534;28;20059;-47
2024/03/30 01:05:43;;;;;;;2.13;2.03;;;16.30;76.20;;;;;;4185902;28;20060;-51
2024/03/30 01:08:22;;;;;;;2.38;2.20;;;16.30;76.10;;;;;;4185945;28;20060;-50
2024/03/30 01:11:04;;;;;;;3.67;2.30;;;16.30;76.20;;;;;;4200654;28;20058;-48
2024/03/30 01:13:45;;;;;;;2.63;2.42;;;16.30;76.30;;;;;;4176950;28;20072;-48
2024/03/30 01:16:25;;;;;;;2.00;1.80;;;16.30;76.40;;;;;;4170066;28;20047;-48
2024/03/30 01:19:05;;;;;;;2.03;1.92;;;16.30;76.50;;;;;;4183433;28;20083;-48
2024/03/30 01:21:45;;;;;;;2.45;2.28;;;16.30;76.70;;;;;;4185478;28;20060;-48
2024/03/30 01:24:25;;;;;;;2.03;1.92;;;16.20;76.50;;;;;;4185676;28;20055;-48
2024/03/30 01:27:11;;;;;;;2.20;2.10;;;16.20;76.50;;;;;;4202562;28;20063;-48
2024/03/30 01:29:53;;;;;;;2.40;2.20;;;16.20;76.60;;;;;;4193184;28;20882;-50
2024/03/30 01:32:34;;;;;;;3.88;2.00;;;16.20;76.80;;;;;;4202207;28;20050;-41
2024/03/30 01:35:14;;;;;;;3.50;1.80;;;16.30;77.00;;;;;;4202515;28;20468;-41
2024/03/30 01:37:54;;;;;;;2.30;1.95;;;16.20;77.00;;;;;;4202743;28;20047;-41
2024/03/30 01:40:33;;;;;;;2.20;1.90;;;16.20;77.00;;;;;;4202569;28;20113;-41
2024/03/30 01:43:14;;;;;;;1.83;1.73;;;16.20;77.10;;;;;;4202539;28;20047;-41
2024/03/30 01:45:57;;;;;;;2.35;2.13;;;16.20;77.20;;;;;;4170634;28;20063;-41
2024/03/30 01:48:38;;;;;;;3.22;2.20;;;16.20;77.20;;;;;;4169942;28;20079;-41
2024/03/30 01:51:16;;;;;;;2.30;2.20;;;16.20;77.30;;;;;;4185924;28;20056;-41
2024/03/30 01:53:58;;;;;;;3.92;2.28;;;16.20;77.40;;;;;;4183358;28;20086;-41
2024/03/30 01:56:38;;;;;;;3.38;2.35;;;16.20;77.40;;;;;;4188730;28;20055;-41
2024/03/30 01:59:18;;;;;;;2.58;2.38;;;16.20;77.50;;;;;;4189229;28;20056;-43
2024/03/30 02:02:00;;;;;;;2.13;2.03;;;16.20;77.40;;;;;;4186090;28;20059;-40
2024/03/30 02:04:42;;;;;;;2.00;1.90;;;16.20;77.30;;;;;;4192500;27;20074;-40
2024/03/30 02:07:21;;;;;;;2.60;2.17;;;16.20;77.40;;;;;;4188983;28;20107;-40
2024/03/30 02:10:02;;;;;;;2.28;2.03;;;16.20;77.50;;;;;;4204443;28;20046;-40
2024/03/30 02:12:41;;;;;;;;;;;16.20;77.50;;;;;;4205840;28;20127;-40
2024/03/30 02:15:22;;;;;;;1.55;1.45;;;16.10;77.40;;;;;;4192119;28;20385;-41
2024/03/30 02:18:03;;;;;;;3.38;1.98;;;16.20;77.90;;;;;;4187189;28;20704;-43
2024/03/30 02:20:43;;;;;;;2.10;1.88;;;16.10;77.80;;;;;;4186515;28;20101;-41
2024/03/30 02:23:23;;;;;;;3.72;1.90;;;16.10;77.70;;;;;;4188694;28;20402;-41
2024/03/30 02:26:03;;;;;;;1.90;1.75;;;16.10;77.70;;;;;;4176929;28;20052;-41
2024/03/30 02:28:43;;;;;;;2.17;1.73;;;16.10;77.60;;;;;;4171891;28;20115;-41
2024/03/30 02:31:23;;;;;;;3.20;1.80;;;16.10;77.60;;;;;;4177831;28;20051;-41
2024/03/30 02:34:03;;;;;;;1.85;1.80;;;16.10;77.60;;;;;;4188972;28;20074;-41
2024/03/30 02:36:44;;;;;;;3.30;1.90;;;16.10;77.80;;;;;;4197469;28;20058;-41
2024/03/30 02:39:24;;;;;;;2.00;1.83;;;16.10;77.70;;;;;;4205042;28;20054;-41
2024/03/30 02:42:04;;;;;;;1.90;1.80;;;16.10;77.70;;;;;;4205098;28;20070;-41
2024/03/30 02:44:43;;;;;;;1.98;1.73;;;16.10;77.70;;;;;;4205013;28;20059;-43
2024/03/30 02:47:23;;;;;;;1.83;1.67;;;16.10;77.70;;;;;;4176664;28;20050;-41
2024/03/30 02:50:03;;;;;;;1.80;1.67;;;16.10;77.70;;;;;;4177681;28;20056;-41
2024/03/30 02:52:43;;;;;;;2.17;1.98;;;16.10;77.70;;;;;;4177058;28;20055;-42
2024/03/30 02:55:24;;;;;;;2.50;1.70;;;16.10;77.70;;;;;;4188001;28;20047;-41
2024/03/30 02:58:04;;;;;;;2.00;1.90;;;16.10;77.70;;;;;;4188113;28;20445;-41
2024/03/30 03:00:43;;;;;;;2.90;1.73;;;16.10;77.70;;;;;;4192480;28;20106;-41
2024/03/30 03:03:23;;;;;;;1.88;1.60;;;16.10;78.60;;;;;;4186561;28;20178;-40
2024/03/30 03:06:03;;;;;;;3.10;1.85;;;16.10;77.80;;;;;;4188192;28;20068;-40
2024/03/30 03:08:42;;;;;;;1.85;1.70;;;16.00;77.80;;;;;;4203297;28;20121;-40
2024/03/30 03:11:23;;;;;;;2.30;2.10;;;16.00;77.80;;;;;;4203004;28;20101;-40
2024/03/30 03:14:03;;;;;;;2.45;2.10;;;16.10;77.90;;;;;;4204730;28;20444;-40
2024/03/30 03:16:42;;;;;;;2.47;1.67;;;16.00;77.80;;;;;;4176192;28;20517;-40
2024/03/30 03:19:22;;;;;;;3.70;2.00;;;16.00;77.90;;;;;;4186928;28;20118;-40
2024/03/30 03:22:01;;;;;;;2.50;2.30;;;16.00;78.00;;;;;;4187433;28;20078;-39
2024/03/30 03:24:41;;;;;;;2.40;2.20;;;16.00;78.20;;;;;;4192048;28;20217;-40
2024/03/30 03:27:21;;;;;;;2.55;2.15;;;16.00;78.30;;;;;;4204265;28;20382;-40
2024/03/30 03:30:01;;;;;;;5.68;2.33;;;16.00;78.20;;;;;;4187924;28;20051;-40
2024/03/30 03:32:41;;;;;;;3.85;2.33;;;16.00;78.20;;;;;;4192863;27;20109;-40
2024/03/30 03:35:20;;;;;;;4.50;2.88;;;16.00;78.30;;;;;;4204604;28;20802;-40
2024/03/30 03:38:00;;;;;;;2.28;2.00;;;16.00;78.40;;;;;;4186174;28;20098;-40
2024/03/30 03:40:39;;;;;;;5.72;2.47;;;16.00;78.40;;;;;;4198203;28;20067;-40
2024/03/30 03:43:19;;;;;;;3.63;2.60;;;16.00;78.40;;;;;;4187847;28;20449;-40
2024/03/30 03:46:00;;;;;;;2.95;2.50;;;16.00;78.50;;;;;;4176415;28;20114;-40
2024/03/30 03:48:39;;;;;;;2.53;2.33;;;16.00;78.60;;;;;;4190416;28;20379;-40
2024/03/30 03:51:19;;;;;;;4.25;2.58;;;16.00;79.60;;;;;;4188425;28;20055;-39
2024/03/30 03:53:59;;;;;;;3.20;2.30;;;16.00;78.70;;;;;;4203893;28;20150;-40
2024/03/30 03:56:39;;;;;;;2.42;2.25;;;16.00;78.80;;;;;;4203684;28;20090;-40
2024/03/30 03:59:19;;;;;;;3.30;2.60;;;16.00;78.80;;;;;;4202849;28;20046;-41
2024/03/30 04:01:59;;;;;;;2.97;2.38;;;16.00;78.80;;;;;;4201778;28;20046;-41
2024/03/30 04:04:38;;;;;;;5.13;2.50;;;15.90;78.80;;;;;;4186579;28;20186;-41
2024/03/30 04:07:18;;;;;;;3.97;2.58;;;15.90;78.80;;;;;;4187225;28;20062;-41
2024/03/30 04:09:57;;;;;;;4.82;2.55;;;15.90;78.80;;;;;;4200770;28;20139;-41
2024/03/30 04:12:37;;;;;;;2.83;2.28;;;16.00;78.00;;;;;;4193733;28;20371;-41
2024/03/30 04:15:18;;;;;;;3.60;2.53;;;15.90;78.80;;;;;;4189618;28;20798;-40
2024/03/30 04:17:58;;;;;;;3.92;2.40;;;16.00;78.90;;;;;;4187498;28;20447;-40
2024/03/30 04:20:37;;;;;;;2.67;2.47;;;16.00;79.00;;;;;;4203136;28;20062;-40
2024/03/30 04:23:17;;;;;;;3.47;2.83;;;16.00;78.90;;;;;;4203370;28;20406;-40
2024/03/30 04:26:06;;;;;;;3.78;3.38;;;15.90;78.90;;;;;;4202376;28;20050;-40
2024/03/30 04:28:47;;;;;;;2.78;2.53;;;15.90;78.90;;;;;;4193975;28;20824;-39
2024/03/30 04:31:27;;;;;;;2.78;2.58;;;15.90;79.00;;;;;;4197894;28;20570;-40
2024/03/30 04:34:07;;;;;;;2.53;2.33;;;15.90;79.00;;;;;;4202906;28;20482;-40
2024/03/30 04:36:47;;;;;;;3.60;3.08;;;15.90;79.20;;;;;;4203290;28;20063;-41
2024/03/30 04:39:27;;;;;;;3.33;2.95;;;15.90;79.20;;;;;;4189532;28;20059;-41
2024/03/30 04:42:09;;;;;;;3.13;2.42;;;15.90;79.10;;;;;;4191483;28;20093;-41
2024/03/30 04:44:49;;;;;;;3.25;2.50;;;15.90;79.10;;;;;;4203213;28;20066;-41
2024/03/30 04:47:29;;;;;;;3.20;2.95;;;15.90;79.10;;;;;;4202111;28;20047;-43
2024/03/30 04:50:10;;;;;;;3.47;2.85;;;15.90;79.10;;;;;;4191618;28;20055;-41
2024/03/30 04:52:49;;;;;;;4.22;3.10;;;15.90;79.20;;;;;;4203399;28;20050;-41
2024/03/30 04:55:29;;;;;;;3.10;2.80;;;15.90;79.30;;;;;;4185830;28;20139;-41
2024/03/30 04:58:08;;;;;;;3.95;2.85;;;15.90;79.20;;;;;;4185997;28;20518;-41
2024/03/30 05:00:48;;;;;;;3.58;3.08;;;15.90;79.30;;;;;;4200813;27;20059;-40
2024/03/30 05:03:28;;;;;;;3.28;3.08;;;15.90;79.50;;;;;;4203069;27;20128;-40
2024/03/30 05:06:08;;;;;;;2.83;2.72;;;15.90;79.30;;;;;;4202566;28;20055;-40
2024/03/30 05:08:48;;;;;;;2.85;2.65;;;15.90;79.30;;;;;;4202831;28;20054;-40
2024/03/30 05:11:27;;;;;;;2.85;2.65;;;15.80;80.20;;;;;;4191566;28;20117;-40
2024/03/30 05:14:07;;;;;;;4.75;3.40;;;15.90;79.40;;;;;;4201970;28;20066;-40
2024/03/30 05:16:46;;;;;;;4.05;3.42;;;15.80;79.30;;;;;;4190061;28;21969;-40
2024/03/30 05:22:24;;;;;;;3.60;3.30;;;15.80;79.60;;;;;;4189690;28;20050;-40
2024/03/30 05:25:05;;;;;;;4.57;3.72;;;15.80;79.70;;;;;;4191432;28;20051;-40
2024/03/30 05:27:44;;;;;;;4.47;4.07;;;15.80;79.70;;;;;;4202535;28;20097;-40
2024/03/30 05:30:24;;;;;;;4.43;4.03;;;15.80;79.70;;;;;;4187437;28;20137;-40
2024/03/30 05:33:03;;;;;;;4.00;3.70;;;15.80;79.70;;;;;;4197757;28;20050;-41
2024/03/30 05:35:46;;;;;;;4.10;3.72;;;15.80;79.60;;;;;;4202238;28;20051;-40
2024/03/30 05:38:26;;;;;;;4.75;3.70;;;15.80;79.60;;;;;;4202317;28;20047;-43
2024/03/30 05:41:06;;;;;;;4.80;4.40;;;15.80;79.80;;;;;;4202531;27;20055;-40
2024/03/30 05:43:45;;;;;;;4.22;3.92;;;15.80;79.80;;;;;;4202549;28;20403;-40
2024/03/30 05:46:25;;;;;;;4.43;4.03;;;15.80;79.90;;;;;;4202032;28;20051;-39
2024/03/30 05:49:04;;;;;;;4.30;3.90;;;15.80;80.00;;;;;;4202269;28;20505;-40
2024/03/30 05:51:45;;;;;;;4.57;4.10;;;15.80;80.00;;;;;;4202383;28;20189;-39
2024/03/30 05:54:24;;;;;;;;;;;15.80;80.10;;;;;;4201543;28;20059;-40
2024/03/30 05:57:05;;;;;;;5.40;4.90;;;15.80;80.00;;;;;;4202271;28;20301;-40
2024/03/30 05:59:43;;;;;;;6.63;4.38;;;15.80;80.10;;;;;;4185685;28;20510;-40
2024/03/30 06:02:23;;;;;;;4.68;4.32;;;15.80;80.00;;;;;;4185554;28;20048;-40
2024/03/30 06:05:03;;;;;;;5.85;5.25;;;15.70;80.00;;;;;;4184953;28;20486;-40
2024/03/30 06:07:44;;;;;;;5.60;5.10;;;15.70;80.20;;;;;;4179483;28;20130;-40
2024/03/30 06:10:23;;;;;;;6.38;4.75;;;15.70;80.10;;;;;;4176616;28;20121;-40
2024/03/30 06:13:04;;;;;;;4.97;4.47;;;15.80;80.20;;;;;;4191247;28;20121;-40
2024/03/30 06:15:43;;;;;;;5.30;4.85;;;15.70;80.30;;;;;;4184576;28;20553;-39
2024/03/30 06:18:23;;;;;;;5.15;4.65;;;15.70;80.50;;;;;;4185830;28;20048;-40
2024/03/30 06:21:04;;;;;;;5.50;5.00;;;15.80;80.80;;;;;;4185550;28;20502;-40
2024/03/30 06:23:45;;;;;;;6.03;5.25;;;15.80;80.90;;;;;;4174129;27;20556;-40
2024/03/30 06:26:24;;;;;;;;;;;15.80;80.90;;;;;;4194445;28;20545;-40
2024/03/30 06:29:04;;;;;;;7.18;5.43;;;15.80;80.70;;;;;;4185763;28;19947;-39
2024/03/30 06:31:43;;;;;;;6.45;5.55;;;15.80;80.90;;;;;;4178925;28;20106;-40
2024/03/30 06:34:24;;;;;;;6.53;5.82;;;15.80;80.70;;;;;;4201387;28;20109;-40
2024/03/30 06:37:03;;;;;;;6.30;5.70;;;15.80;80.70;;;;;;4190247;28;20056;-41
2024/03/30 06:45:40;;;;;;;7.45;5.82;;;15.80;80.70;;;;;;4187142;28;20106;-41
2024/03/30 06:48:19;;;;;;;7.38;5.78;;;15.70;80.60;;;;;;4187752;28;20062;-40
2024/03/30 06:50:59;;;;;;;6.32;5.72;;;15.70;80.70;;;;;;4188142;28;20048;-41
2024/03/30 06:53:40;;;;;;;6.35;5.75;;;15.70;80.60;;;;;;4187688;28;20067;-41
2024/03/30 06:56:20;;;;;;;6.78;6.13;;;15.70;80.60;;;;;;4188454;28;20051;-40
2024/03/30 06:59:00;;;;;;;6.88;6.28;;;15.70;80.70;;;;;;4188444;28;20139;-40
2024/03/30 07:01:39;;;;;;;6.90;6.20;;;15.70;80.60;;;;;;4189529;27;20067;-41
2024/03/30 07:04:19;;;;;;;6.93;6.15;;;15.70;80.60;;;;;;4187835;28;20578;-41
2024/03/30 07:06:58;;;;;;;7.57;6.45;;;15.70;80.60;;;;;;4188114;28;20055;-40
2024/03/30 07:09:38;;;;;;;8.13;6.22;;;15.70;80.70;;;;;;4188024;28;20129;-40
2024/03/30 07:12:19;;;;;;;6.45;5.85;;;15.70;80.80;;;;;;4188511;28;20051;-40
2024/03/30 07:14:59;;;;;;;5.90;5.18;;;15.70;80.80;;;;;;4176253;28;20506;-41
2024/03/30 07:17:38;;;;;;;6.57;4.82;;;15.60;80.60;;;;;;4187224;28;20475;-42
2024/03/30 07:20:18;;;;;;;6.28;4.75;;;15.70;80.70;;;;;;4187910;28;20060;-41
2024/03/30 07:22:57;;;;;;;4.82;4.53;;;15.70;81.90;;;;;;4187862;28;20051;-40
2024/03/30 07:25:37;;;;;;;5.47;5.07;;;15.70;83.50;;;;;;4188104;28;20078;-41
2024/03/30 07:28:18;;;;;;;4.90;4.40;;;15.70;85.00;;;;;;4198220;28;20051;-40
2024/03/30 07:31:03;;;;;;;6.13;4.53;;;15.70;85.40;;;;;;4203134;28;20097;-40
2024/03/30 07:33:42;;;;;;;4.65;4.25;;;15.70;85.10;;;;;;4202566;28;20517;-42
2024/03/30 07:36:22;;;;;;;5.70;4.82;;;15.70;84.90;;;;;;4204139;28;20055;-40
2024/03/30 07:39:01;;;;;;;5.63;5.13;;;15.70;84.70;;;;;;4204121;28;20093;-40
2024/03/30 07:41:41;;;;;;;5.43;4.95;;;15.70;83.90;;;;;;4178767;28;20059;-42
2024/03/30 07:44:24;;;;;;;5.15;4.57;;;15.70;83.20;;;;;;4190740;28;20098;-40
2024/03/30 07:47:06;;;;;;;4.80;4.30;;;15.70;83.70;;;;;;4186911;28;20121;-40
2024/03/30 07:49:45;;;;;;;6.07;4.82;;;15.60;84.00;;;;;;4194692;27;20062;-40
2024/03/30 07:52:25;;;;;;;4.78;4.38;;;15.70;84.20;;;;;;4203229;27;20101;-40
2024/03/30 07:55:04;;;;;;;5.60;5.10;;;15.70;84.20;;;;;;4196646;27;20052;-40
2024/03/30 07:57:44;;;;;;;5.68;5.18;;;15.70;84.10;;;;;;4204123;28;20059;-40
2024/03/30 08:00:25;;;;;;;5.60;5.10;;;15.70;84.00;;;;;;4201515;28;20051;-40
2024/03/30 08:03:06;;;;;;;5.80;5.20;;;15.80;83.70;;;;;;4186923;28;20079;-40
2024/03/30 08:05:54;;;;;;;5.68;5.18;;;15.80;83.50;;;;;;4187544;28;20101;-40
2024/03/30 08:08:35;;;;;;;6.03;5.53;;;15.90;83.40;;;;;;4186126;28;20098;-39
2024/03/30 08:11:14;;;;;;;6.70;4.93;;;15.80;84.20;;;;;;4184479;28;20054;-39
2024/03/30 08:13:54;;;;;;;6.00;5.40;;;15.80;83.30;;;;;;4185544;28;20055;-40
2024/03/30 08:16:34;;;;;;;6.65;6.05;;;15.90;83.50;;;;;;4191155;28;20051;-41
2024/03/30 08:19:16;;;;;;;5.63;5.23;;;15.90;83.70;;;;;;4182219;28;20055;-40
2024/03/30 08:21:55;;;;;;;5.15;4.78;;;15.90;83.60;;;;;;4175282;28;20313;-40
2024/03/30 08:24:35;;;;;;;5.60;5.05;;;15.90;83.40;;;;;;4198998;28;20063;-40
2024/03/30 08:27:14;;;;;;;5.75;4.18;;;15.80;83.30;;;;;;4203607;28;20054;-40
2024/03/30 08:29:54;;;;;;;4.95;4.55;;;15.80;83.30;;;;;;4203537;28;20047;-40
2024/03/30 08:32:34;;;;;;;5.15;4.65;;;15.80;84.30;;;;;;4202400;27;20050;-41
2024/03/30 08:35:15;;;;;;;4.90;4.50;;;15.80;83.60;;;;;;4191373;27;20151;-41
2024/03/30 08:37:54;;;;;;;4.70;4.30;;;15.80;84.20;;;;;;4186732;28;20147;-40
2024/03/30 08:40:35;;;;;;;4.10;3.70;;;15.80;83.90;;;;;;4202970;28;20296;-41
2024/03/30 08:43:14;;;;;;;5.75;5.25;;;15.90;83.90;;;;;;4202853;28;20051;-40
2024/03/30 08:45:55;;;;;;;5.32;4.82;;;15.90;84.00;;;;;;4200584;28;20047;-46
2024/03/30 08:48:36;;;;;;;4.95;4.55;;;15.90;83.60;;;;;;4190799;28;20109;-42
2024/03/30 08:51:17;;;;;;;5.45;4.88;;;15.90;83.50;;;;;;4202236;28;20058;-44
2024/03/30 08:54:00;;;;;;;4.93;4.53;;;16.00;83.70;;;;;;4199943;28;20066;-45
2024/03/30 08:56:40;;;;;;;6.43;5.25;;;16.00;83.50;;;;;;4185119;28;20051;-42
2024/03/30 08:59:19;;;;;;;5.60;4.88;;;16.10;83.30;;;;;;4181733;28;20056;-43
2024/03/30 09:01:59;;;;;;;5.15;4.47;;;16.10;83.40;;;;;;4174970;28;20055;-45
2024/03/30 09:04:40;;;;;;;5.38;4.93;;;16.10;84.20;;;;;;4184299;28;20399;-43
2024/03/30 09:07:20;;;;;;;4.45;4.05;;;16.10;83.80;;;;;;4185589;28;20047;-39
2024/03/30 09:09:59;;;;;;;4.95;4.50;;;16.20;83.70;;;;;;4202545;28;20071;-39
2024/03/30 09:12:39;;;;;;;4.88;4.38;;;16.20;83.70;;;;;;4201737;28;20059;-39
2024/03/30 09:15:19;;;;;;;4.93;4.28;;;16.30;83.90;;;;;;4200668;27;20046;-40
2024/03/30 09:18:00;;;;;;;4.07;3.78;;;16.30;83.80;;;;;;4165393;28;20121;-40
2024/03/30 09:20:41;;;;;;;3.53;3.15;;;16.30;83.40;;;;;;4198287;28;20051;-41
2024/03/30 09:23:21;;;;;;;4.28;3.67;;;16.40;83.20;;;;;;4201298;28;20097;-40
2024/03/30 09:26:00;;;;;;;3.42;3.13;;;16.40;83.00;;;;;;4201923;28;20110;-40
2024/03/30 09:28:40;;;;;;;4.28;3.88;;;16.40;83.00;;;;;;4202354;28;20135;-40
2024/03/30 09:31:19;;;;;;;3.63;3.42;;;16.50;83.10;;;;;;4192045;28;20097;-40
2024/03/30 09:33:59;;;;;;;3.35;3.15;;;16.50;83.00;;;;;;4185568;28;20143;-41
2024/03/30 09:36:41;;;;;;;3.33;3.17;;;16.60;82.80;;;;;;4186002;28;20476;-40
2024/03/30 09:39:20;;;;;;;3.53;3.22;;;16.60;82.60;;;;;;4193824;28;20046;-41
2024/03/30 09:42:01;;;;;;;3.92;3.50;;;16.70;83.30;;;;;;4202784;28;20059;-41
2024/03/30 09:44:41;;;;;;;6.07;3.03;;;17.00;83.00;;;;;;4174613;28;20110;-41
2024/03/30 09:47:23;;;;;;;3.72;3.50;;;17.50;81.80;;;;;;4185200;28;20087;-42
2024/03/30 09:50:04;;;;;;;3.28;3.05;;;18.00;78.80;;;;;;4186718;28;20143;-41
2024/03/30 09:52:47;;;;;;;3.33;2.75;;;18.50;76.20;;;;;;4191724;28;20080;-44
2024/03/30 09:55:27;;;;;;;2.90;2.80;;;19.10;74.30;;;;;;4200157;28;20055;-43
2024/03/30 09:58:09;;;;;;;2.88;2.63;;;19.60;72.80;;;;;;4201833;28;20047;-42
2024/03/30 10:00:50;;;;;;;3.00;2.80;;;20.00;70.00;;;;;;4202468;28;20424;-41
2024/03/30 10:03:30;;;;;;;2.80;2.70;;;20.40;68.80;;;;;;4202437;28;20097;-41
2024/03/30 10:06:15;;;;;;;3.17;2.88;;;20.70;67.60;;;;;;4202282;28;20052;-41
2024/03/30 10:09:03;;;;;;;3.10;2.90;;;20.90;66.40;;;;;;4185483;28;20051;-41
2024/03/30 10:11:45;;;;;;;3.30;3.00;;;21.10;65.80;;;;;;4186114;28;20133;-41
2024/03/30 10:14:31;;;;;;;3.20;2.95;;;21.10;65.80;;;;;;4199916;28;20051;-42
2024/03/30 10:17:11;;;;;;;3.30;3.10;;;21.00;66.30;;;;;;4205601;28;20935;-41
2024/03/30 10:19:52;;;;;;;3.72;3.42;;;21.00;66.20;;;;;;4194922;28;20059;-41
2024/03/30 10:22:35;;;;;;;3.70;3.40;;;20.90;66.30;;;;;;4189825;28;20068;-41
2024/03/30 10:25:17;;;;;;;3.28;3.08;;;20.80;66.70;;;;;;4189014;28;20549;-41
2024/03/30 10:27:56;;;;;;;3.20;2.92;;;20.80;67.10;;;;;;4191404;28;20130;-41
2024/03/30 10:30:36;;;;;;;2.88;2.67;;;20.70;68.30;;;;;;4204305;28;20059;-40
2024/03/30 10:33:18;;;;;;;3.05;2.85;;;20.70;67.50;;;;;;4187887;28;20051;-40
2024/03/30 10:35:58;;;;;;;3.25;2.63;;;20.70;67.50;;;;;;4188553;28;20146;-40
2024/03/30 10:38:37;;;;;;;2.88;2.67;;;20.60;67.80;;;;;;4176169;28;20052;-40
2024/03/30 10:41:19;;;;;;;2.80;2.60;;;20.50;67.80;;;;;;4203482;28;20502;-40
2024/03/30 10:43:58;;;;;;;5.82;3.40;;;20.50;67.70;;;;;;4203997;28;20442;-41
2024/03/30 10:46:39;;;;;;;3.10;2.53;;;20.50;67.80;;;;;;4204350;28;20070;-41
2024/03/30 10:49:18;;;;;;;7.20;3.00;;;20.50;68.00;;;;;;4187751;28;20403;-41
2024/03/30 10:52:00;;;;;;;6.28;3.30;;;20.50;68.00;;;;;;4180321;27;20067;-41
2024/03/30 10:54:39;;;;;;;5.93;2.92;;;20.50;68.00;;;;;;4196368;27;20055;-41
2024/03/30 10:57:21;;;;;;;4.30;2.33;;;20.50;67.90;;;;;;4201799;28;20508;-41
2024/03/30 11:00:06;;;;;;;6.47;2.70;;;20.50;67.80;;;;;;4189963;28;20048;-42
2024/03/30 11:02:48;;;;;;;3.38;3.03;;;20.40;68.00;;;;;;4191906;28;20063;-43
2024/03/30 11:05:28;;;;;;;4.60;2.70;;;20.40;68.10;;;;;;4191185;28;20105;-43
2024/03/30 11:08:09;;;;;;;5.72;2.85;;;20.30;68.50;;;;;;4204704;28;20186;-43
2024/03/30 11:10:49;;;;;;;4.55;3.22;;;20.30;69.00;;;;;;4178657;28;20102;-40
2024/03/30 11:13:31;;;;;;;5.22;3.38;;;20.20;69.10;;;;;;4181262;28;20055;-44
2024/03/30 11:16:13;;;;;;;8.60;3.78;;;20.20;69.20;;;;;;4187645;28;20132;-42
2024/03/30 11:19:03;;;;;;;5.55;2.83;;;20.20;69.90;;;;;;4204338;28;20040;-41
2024/03/30 11:21:47;;;;;;;7.22;2.85;;;20.10;70.40;;;;;;4202265;28;20076;-42
2024/03/30 11:24:32;;;;;;;10.15;3.95;;;20.10;70.30;;;;;;4192800;28;20051;-44
2024/03/30 11:27:18;;;;;;;7.65;3.28;;;20.10;70.30;;;;;;4176124;28;20063;-42
2024/03/30 11:30:05;;;;;;;8.10;3.22;;;20.00;70.20;;;;;;4187146;28;20051;-43
2024/03/30 11:32:48;;;;;;;8.48;3.95;;;20.00;70.40;;;;;;4187549;28;20059;-42
2024/03/30 11:35:34;;;;;;;11.80;3.58;;;19.90;70.60;;;;;;4204540;28;20062;-42
2024/03/30 11:38:14;;;;;;;13.20;3.17;;;19.90;70.90;;;;;;4203585;28;20067;-43
2024/03/30 11:41:00;;;;;;;8.77;2.88;;;19.80;71.00;;;;;;4204607;28;20055;-44
2024/03/30 11:43:45;;;;;;;11.77;3.30;;;19.70;72.10;;;;;;4187788;28;20056;-41
2024/03/30 11:46:27;;;;;;;12.35;2.72;;;19.60;71.10;;;;;;4195256;28;20047;-40
2024/03/30 11:49:07;;;;;;;19.85;3.97;;;19.70;71.20;;;;;;4203897;28;20047;-40
2024/03/30 11:51:47;;;;;;;13.82;3.10;;;19.70;71.10;;;;;;4203357;28;20051;-40
2024/03/30 11:54:26;;;;;;;13.18;3.88;;;19.60;71.80;;;;;;4189282;28;20058;-43
2024/03/30 11:57:11;;;;;;;16.85;3.42;;;19.60;70.90;;;;;;4192312;28;20042;-43
2024/03/30 11:59:54;;;;;;;15.75;2.78;;;19.60;70.80;;;;;;4204095;28;20125;-43
2024/03/30 12:02:35;;;;;;;18.27;2.85;;;19.70;70.70;;;;;;4187292;28;20059;-43
2024/03/30 12:05:19;;;;;;;12.68;3.42;;;19.70;70.20;;;;;;4175264;28;20518;-39
2024/03/30 12:07:59;;;;;;;10.68;2.40;;;19.80;70.00;;;;;;4186808;28;20067;-40
2024/03/30 12:10:52;;;;;;;13.88;2.97;;;19.80;70.10;;;;;;4186917;28;20650;-40
2024/03/30 12:13:38;;;;;;;14.18;3.08;;;19.80;69.70;;;;;;4186025;28;20055;-40
2024/03/30 12:16:17;;;;;;;14.95;3.42;;;19.80;69.60;;;;;;4186701;28;20121;-40
2024/03/30 12:18:59;;;;;;;13.93;3.15;;;19.80;69.70;;;;;;4197313;28;20505;-46
2024/03/30 12:21:39;;;;;;;15.68;2.75;;;19.80;70.10;;;;;;4202897;28;20101;-43
2024/03/30 12:24:19;;;;;;;15.32;2.67;;;19.80;70.10;;;;;;4202898;28;20059;-41
2024/03/30 12:26:59;;;;;;;9.70;3.75;;;19.70;70.60;;;;;;4202413;28;20066;-40
2024/03/30 12:29:39;;;;;;;11.48;3.17;;;19.70;70.70;;;;;;4203149;27;20075;-40
2024/03/30 12:32:18;;;;;;;19.20;3.65;;;19.60;71.00;;;;;;4201063;28;20101;-40
2024/03/30 12:35:00;;;;;;;13.50;3.28;;;19.60;71.00;;;;;;4203136;28;20193;-40
2024/03/30 12:37:40;;;;;;;19.73;3.25;;;19.50;71.20;;;;;;4202650;28;20055;-41
2024/03/30 12:40:21;;;;;;;15.68;2.90;;;19.40;71.30;;;;;;4191698;28;20110;-41
2024/03/30 12:43:00;;;;;;;12.50;3.03;;;19.40;71.40;;;;;;4203060;28;20089;-41
2024/03/30 12:45:41;;;;;;;12.65;2.10;;;19.40;71.60;;;;;;4190570;28;20059;-40
2024/03/30 12:48:20;;;;;;;14.48;3.17;;;19.40;71.80;;;;;;4196833;28;20094;-40
2024/03/30 12:51:02;;;;;;;13.30;3.08;;;19.30;71.90;;;;;;4184129;28;20058;-40
2024/03/30 12:53:41;;;;;;;14.75;2.40;;;19.20;72.00;;;;;;4199913;28;20406;-39
2024/03/30 12:56:22;;;;;;;11.63;1.98;;;19.20;72.30;;;;;;4202505;28;20466;-40
2024/03/30 12:59:03;;;;;;;20.52;3.47;;;19.20;72.50;;;;;;4202363;28;20109;-40
2024/03/30 13:01:43;;;;;;;15.95;3.50;;;19.10;72.80;;;;;;4202523;28;20217;-41
2024/03/30 13:04:22;;;;;;;12.55;2.80;;;19.10;73.00;;;;;;4201106;28;20054;-43
2024/03/30 13:07:06;;;;;;;18.35;3.10;;;19.00;73.20;;;;;;4197635;28;20555;-41
2024/03/30 13:09:47;;;;;;;12.30;2.88;;;18.90;73.40;;;;;;4203083;28;20046;-41
2024/03/30 13:12:27;;;;;;;15.13;2.60;;;18.90;73.50;;;;;;4202747;28;20059;-41
2024/03/30 13:15:07;;;;;;;15.75;3.42;;;18.90;73.80;;;;;;4202627;28;20047;-40
2024/03/30 13:17:47;;;;;;;13.52;3.00;;;18.80;74.00;;;;;;4202776;28;20136;-41
2024/03/30 13:20:29;;;;;;;16.63;2.63;;;18.80;74.10;;;;;;4201067;28;20075;-39
2024/03/30 13:23:12;;;;;;;11.20;2.53;;;18.80;74.20;;;;;;4202451;28;20047;-40
2024/03/30 13:25:51;;;;;;;16.33;2.92;;;18.70;74.40;;;;;;4189778;28;20058;-39
2024/03/30 13:28:31;;;;;;;16.40;4.10;;;18.70;74.60;;;;;;4185771;28;20482;-41
2024/03/30 13:31:10;;;;;;;19.23;3.53;;;18.60;74.60;;;;;;4173922;28;20151;-40
2024/03/30 13:33:50;;;;;;;14.70;3.28;;;18.60;74.80;;;;;;4174908;28;20071;-41
2024/03/30 13:36:29;;;;;;;10.88;2.53;;;18.60;75.00;;;;;;4172245;28;20079;-44
2024/03/30 13:39:11;;;;;;;17.13;3.33;;;18.60;75.10;;;;;;4167197;28;20047;-40
2024/03/30 13:41:50;;;;;;;13.65;2.83;;;18.60;75.20;;;;;;4202917;28;20123;-40
2024/03/30 13:44:30;;;;;;;12.40;2.70;;;18.60;75.30;;;;;;4201202;28;20066;-40
2024/03/30 13:47:09;;;;;;;12.55;3.20;;;18.60;75.30;;;;;;4186013;28;20044;-41
2024/03/30 13:49:49;;;;;;;18.38;3.03;;;18.60;75.70;;;;;;4186989;28;20047;-41
2024/03/30 13:52:28;;;;;;;31.38;3.50;;;18.50;75.90;;;;;;4177111;28;20138;-43
2024/03/30 13:55:10;;;;;;;23.15;3.38;;;18.50;75.90;;;;;;4178031;28;20102;-41
2024/03/30 13:57:50;;;;;;;12.68;3.15;;;18.50;75.80;;;;;;4188723;28;20493;-41
2024/03/30 14:00:30;;;;;;;12.18;2.78;;;18.50;75.90;;;;;;4189027;28;20122;-41
2024/03/30 14:03:09;;;;;;;24.52;3.20;;;18.50;76.00;;;;;;4181442;28;20066;-41